Time;durP1;ratioP1;P1;durP2;ratioP2;P2;SDS_P1;SDS_P2;PMS_P1;PMS_P2;Temp;Humidity;BMP_temperature;BMP_pressure;BME280_temperature;BME280_humidity;BME280_pressure;Samples;Min_cycle;Max_cycle;Signal;HPM_P1;HPM_P2
2022/04/11 00:02:13;;;;;;;7.57;3.50;;;11.30;50.20;;;;;;5077430;28;20028;-84
2022/04/11 00:04:38;;;;;;;8.23;3.40;;;11.40;50.00;;;;;;5059458;28;20013;-85
2022/04/11 00:07:04;;;;;;;6.47;3.65;;;11.40;50.20;;;;;;5076702;28;20032;-80
2022/04/11 00:09:30;;;;;;;6.85;3.33;;;11.30;49.80;;;;;;5077379;28;20401;-79
2022/04/11 00:11:56;;;;;;;4.90;3.10;;;11.10;49.90;;;;;;5077115;28;20043;-80
2022/04/11 00:14:26;;;;;;;5.28;3.20;;;11.20;50.30;;;;;;5058162;28;20162;-85
2022/04/11 00:16:51;;;;;;;6.50;3.25;;;11.30;49.40;;;;;;5077149;28;20046;-85
2022/04/11 00:19:17;;;;;;;6.68;3.33;;;11.40;48.90;;;;;;5059038;28;20391;-87
2022/04/11 00:21:42;;;;;;;4.95;2.95;;;11.50;48.90;;;;;;5077135;28;20037;-80
2022/04/11 00:24:09;;;;;;;5.75;3.10;;;11.50;48.80;;;;;;5058961;28;20036;-84
2022/04/11 00:26:35;;;;;;;6.45;3.35;;;11.80;48.20;;;;;;5059384;28;20534;-85
2022/04/11 00:29:00;;;;;;;5.55;3.42;;;11.90;47.90;;;;;;5076501;28;20020;-81
2022/04/11 00:31:26;;;;;;;5.00;3.05;;;12.00;48.00;;;;;;5058188;28;20049;-81
2022/04/11 00:33:52;;;;;;;6.75;3.05;;;12.00;48.40;;;;;;5059520;28;20385;-84
2022/04/11 00:36:18;;;;;;;5.13;3.28;;;11.90;48.60;;;;;;5076095;28;20115;-84
2022/04/11 00:38:43;;;;;;;4.97;2.90;;;12.00;48.40;;;;;;5076690;28;20107;-86
2022/04/11 00:41:09;;;;;;;6.57;3.65;;;11.70;48.50;;;;;;5076673;28;20035;-85
2022/04/11 00:43:37;;;;;;;6.35;3.45;;;11.80;49.20;;;;;;5058935;28;20024;-86
2022/04/11 00:46:04;;;;;;;7.03;3.50;;;11.70;49.50;;;;;;5058983;28;20036;-80
2022/04/11 00:48:30;;;;;;;5.90;3.88;;;11.70;49.80;;;;;;5076208;28;20028;-80
2022/04/11 00:51:08;;;;;;;6.82;3.72;;;11.60;49.70;;;;;;5058629;28;20055;-84
2022/04/11 00:53:38;;;;;;;5.35;3.17;;;11.50;49.60;;;;;;5076545;28;20032;-83
2022/04/11 00:56:07;;;;;;;7.28;3.28;;;11.60;49.00;;;;;;5058660;28;20036;-84
2022/04/11 00:58:35;;;;;;;5.38;3.20;;;11.40;49.00;;;;;;5058656;28;20040;-84
2022/04/11 01:01:00;;;;;;;5.68;3.20;;;11.40;49.30;;;;;;5057947;28;20025;-83
2022/04/11 01:03:26;;;;;;;6.53;3.20;;;11.30;49.20;;;;;;5075825;28;20028;-85
2022/04/11 01:05:52;;;;;;;6.93;3.33;;;11.20;49.60;;;;;;5075939;28;20052;-79
2022/04/11 01:08:18;;;;;;;6.30;3.40;;;11.10;49.90;;;;;;5058649;28;20379;-79
2022/04/11 01:10:43;;;;;;;7.30;3.60;;;10.90;50.40;;;;;;5075159;28;20028;-80
2022/04/11 01:13:09;;;;;;;6.47;3.20;;;11.00;50.50;;;;;;5058602;28;20731;-85
2022/04/11 01:15:35;;;;;;;7.28;3.33;;;11.00;50.20;;;;;;5076012;28;20440;-84
2022/04/11 01:18:00;;;;;;;7.72;3.20;;;11.30;50.00;;;;;;5076322;28;20032;-87
2022/04/11 01:20:26;;;;;;;7.63;3.38;;;11.30;49.60;;;;;;5076051;28;20024;-83
2022/04/11 01:22:52;;;;;;;6.38;3.35;;;11.40;49.60;;;;;;5075757;28;20386;-86
2022/04/11 01:25:20;;;;;;;6.78;3.78;;;11.50;49.30;;;;;;5076030;28;20379;-87
2022/04/11 01:27:46;;;;;;;5.97;3.40;;;11.90;48.90;;;;;;5058492;28;20025;-86
2022/04/11 01:30:14;;;;;;;5.45;3.30;;;11.80;48.80;;;;;;5057894;28;20035;-87
2022/04/11 01:32:40;;;;;;;6.18;3.35;;;11.80;48.70;;;;;;5075724;28;20511;-88
2022/04/11 01:35:20;;;;;;;5.65;3.55;;;11.70;48.80;;;;;;5057498;28;20029;-87
2022/04/11 01:37:46;;;;;;;5.43;3.37;;;11.60;48.90;;;;;;5075816;28;20017;-86
2022/04/11 01:40:11;;;;;;;6.53;3.50;;;11.50;49.40;;;;;;5075723;28;20608;-80
2022/04/11 01:42:37;;;;;;;6.25;3.50;;;11.60;49.40;;;;;;5075321;28;20522;-85
2022/04/11 01:45:03;;;;;;;5.47;3.30;;;11.10;50.20;;;;;;5057266;28;20028;-87
2022/04/11 01:47:29;;;;;;;6.70;3.72;;;10.80;50.40;;;;;;5057582;28;20032;-86
2022/04/11 01:49:54;;;;;;;5.65;3.67;;;10.70;50.80;;;;;;5057400;28;20082;-82
2022/04/11 01:52:20;;;;;;;6.78;3.80;;;11.00;50.50;;;;;;5075482;28;20035;-80
2022/04/11 01:54:46;;;;;;;5.68;3.70;;;11.10;50.30;;;;;;5057208;28;20024;-85
2022/04/11 01:57:12;;;;;;;5.93;3.60;;;11.20;49.80;;;;;;5075560;28;20039;-80
2022/04/11 01:59:37;;;;;;;6.22;4.10;;;11.00;50.40;;;;;;5056987;28;20032;-84
2022/04/11 02:02:03;;;;;;;6.32;3.78;;;11.00;50.30;;;;;;5074797;28;20149;-79
2022/04/11 02:04:31;;;;;;;8.68;3.85;;;11.10;50.30;;;;;;5056972;28;20073;-80
2022/04/11 02:06:57;;;;;;;6.97;4.22;;;11.20;50.20;;;;;;5075152;28;20494;-79
2022/04/11 02:09:23;;;;;;;7.40;4.28;;;11.10;50.20;;;;;;5074208;28;20028;-84
2022/04/11 02:11:48;;;;;;;6.95;3.90;;;10.80;50.80;;;;;;5056823;28;20032;-86
2022/04/11 02:14:14;;;;;;;5.80;4.43;;;10.90;50.90;;;;;;5042084;28;20017;-83
2022/04/11 02:16:39;;;;;;;5.72;3.85;;;11.00;50.60;;;;;;5074493;28;20036;-79
2022/04/11 02:19:05;;;;;;;6.88;3.97;;;10.70;51.00;;;;;;5056767;28;20483;-85
2022/04/11 02:21:31;;;;;;;6.70;4.75;;;10.50;51.50;;;;;;5056867;28;20033;-80
2022/04/11 02:23:57;;;;;;;6.10;4.30;;;10.70;51.50;;;;;;5056666;28;20093;-84
2022/04/11 02:26:22;;;;;;;6.32;4.40;;;10.50;52.70;;;;;;5056635;28;20063;-86
2022/04/11 02:28:48;;;;;;;9.20;4.22;;;10.30;52.50;;;;;;5075474;28;20044;-83
2022/04/11 02:31:13;;;;;;;8.48;5.35;;;10.40;52.90;;;;;;5056745;28;20048;-85
2022/04/11 02:33:39;;;;;;;8.32;5.15;;;10.80;52.00;;;;;;5057836;28;20016;-87
2022/04/11 02:36:05;;;;;;;7.85;4.40;;;11.10;51.10;;;;;;5057054;28;20086;-88
2022/04/11 02:38:31;;;;;;;9.50;4.88;;;11.10;51.00;;;;;;5056961;28;20078;-88
2022/04/11 02:40:56;;;;;;;8.90;4.97;;;11.10;51.00;;;;;;5074776;28;20031;-87
2022/04/11 02:43:22;;;;;;;8.05;4.70;;;10.90;51.20;;;;;;5074029;28;20056;-85
2022/04/11 02:45:48;;;;;;;8.05;4.60;;;10.70;51.80;;;;;;5074663;28;20140;-85
2022/04/11 02:48:13;;;;;;;8.93;4.28;;;10.90;51.30;;;;;;5073964;28;20029;-87
2022/04/11 02:50:39;;;;;;;7.13;4.00;;;10.70;50.80;;;;;;5056371;28;20124;-85
2022/04/11 02:53:05;;;;;;;6.85;4.03;;;10.60;51.30;;;;;;5055952;28;20024;-86
2022/04/11 02:55:30;;;;;;;5.95;4.20;;;10.50;51.40;;;;;;5074244;28;20039;-85
2022/04/11 02:57:56;;;;;;;6.85;4.50;;;10.30;52.00;;;;;;5073276;28;20024;-80
2022/04/11 03:00:21;;;;;;;7.18;3.95;;;10.60;51.70;;;;;;5074063;28;20036;-86
2022/04/11 03:02:47;;;;;;;6.63;4.47;;;10.70;51.40;;;;;;5056374;28;20032;-87
2022/04/11 03:05:13;;;;;;;8.60;5.30;;;11.00;51.00;;;;;;5074358;28;20028;-88
2022/04/11 03:07:38;;;;;;;8.23;4.40;;;11.20;50.70;;;;;;5074342;28;20024;-88
2022/04/11 03:10:05;;;;;;;7.00;4.22;;;11.30;50.30;;;;;;5074004;28;20033;-87
2022/04/11 03:12:33;;;;;;;7.05;4.35;;;11.30;50.30;;;;;;5055972;28;20070;-84
2022/04/11 03:14:58;;;;;;;6.47;4.50;;;11.40;50.20;;;;;;5074002;28;20032;-87
2022/04/11 03:17:24;;;;;;;9.13;4.50;;;11.10;51.10;;;;;;5056426;28;20032;-86
2022/04/11 03:19:50;;;;;;;7.35;5.15;;;11.30;50.90;;;;;;5055589;28;20028;-86
2022/04/11 03:22:15;;;;;;;8.10;5.20;;;11.60;50.60;;;;;;5056489;28;20028;-88
2022/04/11 03:24:41;;;;;;;7.47;4.85;;;11.60;50.60;;;;;;5056065;28;20032;-87
2022/04/11 03:27:07;;;;;;;7.97;5.00;;;11.50;51.00;;;;;;5056252;28;20063;-86
2022/04/11 03:29:32;;;;;;;8.63;5.15;;;11.40;51.20;;;;;;5073386;28;20017;-80
2022/04/11 03:31:58;;;;;;;9.25;5.57;;;11.30;51.50;;;;;;5052130;28;20084;-86
2022/04/11 03:34:24;;;;;;;7.47;5.70;;;11.10;51.70;;;;;;5052242;28;20025;-87
2022/04/11 03:36:51;;;;;;;7.43;5.43;;;11.10;51.80;;;;;;5052401;28;20032;-84
2022/04/11 03:39:17;;;;;;;8.57;5.35;;;11.30;51.70;;;;;;5051779;28;20448;-88
2022/04/11 03:41:46;;;;;;;8.43;5.32;;;11.30;51.40;;;;;;5052825;28;20040;-87
2022/04/11 03:44:12;;;;;;;7.75;5.30;;;11.10;51.80;;;;;;5053540;28;20013;-88
2022/04/11 03:46:38;;;;;;;7.95;5.20;;;11.00;52.30;;;;;;5052221;28;20029;-87
2022/04/11 03:49:13;;;;;;;9.57;5.68;;;11.10;51.80;;;;;;5052224;28;20027;-87
2022/04/11 03:51:39;;;;;;;9.25;6.00;;;11.20;51.30;;;;;;5053391;28;20041;-87
2022/04/11 03:54:05;;;;;;;9.95;6.22;;;11.20;51.50;;;;;;5053658;28;20022;-87
2022/04/11 03:56:30;;;;;;;8.23;5.75;;;10.80;51.90;;;;;;5053352;28;20029;-86
2022/04/11 03:58:56;;;;;;;12.15;6.50;;;10.70;52.00;;;;;;5053627;28;20530;-86
2022/04/11 04:01:22;;;;;;;9.07;6.20;;;10.50;52.20;;;;;;5052886;28;20392;-82
2022/04/11 04:03:47;;;;;;;9.90;6.13;;;10.30;52.40;;;;;;5053324;28;20032;-86
2022/04/11 04:06:13;;;;;;;9.05;6.20;;;10.20;53.00;;;;;;5053129;28;20029;-86
2022/04/11 04:08:39;;;;;;;9.35;6.28;;;10.00;53.50;;;;;;5053228;28;20027;-86
2022/04/11 04:11:04;;;;;;;10.32;6.45;;;10.20;53.30;;;;;;5046866;28;20074;-84
2022/04/11 04:13:33;;;;;;;8.63;5.75;;;10.20;53.20;;;;;;5048763;28;20036;-87
2022/04/11 04:15:59;;;;;;;9.20;6.35;;;10.20;53.40;;;;;;5049509;28;20087;-78
2022/04/11 04:18:25;;;;;;;10.13;6.85;;;10.30;53.40;;;;;;5052788;28;20033;-77
2022/04/11 04:20:50;;;;;;;9.20;5.93;;;10.40;53.20;;;;;;5052911;28;20049;-80
2022/04/11 04:23:17;;;;;;;9.00;6.07;;;10.50;53.00;;;;;;5053471;28;20029;-84
2022/04/11 04:25:42;;;;;;;8.70;6.13;;;10.70;52.90;;;;;;5052250;28;20056;-85
2022/04/11 04:28:08;;;;;;;11.13;5.90;;;10.70;52.90;;;;;;5052959;28;20033;-86
2022/04/11 04:30:34;;;;;;;9.45;6.18;;;10.50;53.00;;;;;;5055430;28;20037;-81
2022/04/11 04:33:00;;;;;;;10.73;7.18;;;10.40;53.50;;;;;;5049788;28;20119;-84
2022/04/11 04:35:27;;;;;;;10.32;6.78;;;10.20;53.60;;;;;;5052023;28;20029;-78
2022/04/11 04:37:53;;;;;;;10.48;6.50;;;10.20;53.80;;;;;;5052517;28;20383;-85
2022/04/11 04:40:19;;;;;;;10.80;6.80;;;10.40;53.60;;;;;;5034952;28;20029;-78
2022/04/11 04:42:45;;;;;;;10.60;7.35;;;10.70;53.20;;;;;;5049083;28;20024;-86
2022/04/11 04:45:14;;;;;;;8.77;6.00;;;10.80;52.90;;;;;;5056378;28;20016;-82
2022/04/11 04:47:40;;;;;;;9.57;6.53;;;10.50;53.20;;;;;;5071880;28;20024;-85
2022/04/11 04:50:06;;;;;;;9.68;6.50;;;10.60;53.40;;;;;;5058658;28;20028;-82
2022/04/11 04:52:32;;;;;;;12.88;6.00;;;10.70;53.30;;;;;;5056936;28;20045;-81
2022/04/11 04:54:57;;;;;;;11.93;6.82;;;10.70;53.30;;;;;;5076128;28;20416;-88
2022/04/11 04:57:23;;;;;;;10.30;6.70;;;10.90;53.20;;;;;;5077330;28;20036;-89
2022/04/11 04:59:49;;;;;;;9.23;6.53;;;10.80;53.10;;;;;;5058796;28;20055;-82
2022/04/11 05:02:14;;;;;;;9.23;6.70;;;10.80;53.50;;;;;;5058091;28;20029;-80
2022/04/11 05:04:40;;;;;;;10.27;6.63;;;10.80;53.60;;;;;;5047987;28;20060;-79
2022/04/11 05:07:06;;;;;;;11.23;6.35;;;10.80;53.30;;;;;;5074961;28;20418;-86
2022/04/11 05:09:31;;;;;;;9.48;6.13;;;10.80;53.60;;;;;;5077125;28;20024;-86
2022/04/11 05:11:57;;;;;;;11.27;6.15;;;10.70;54.00;;;;;;5076868;28;20037;-89
2022/04/11 05:14:23;;;;;;;11.15;6.63;;;10.70;53.90;;;;;;5076473;28;20095;-80
2022/04/11 05:16:49;;;;;;;10.60;6.53;;;10.80;54.20;;;;;;5058667;28;20476;-80
2022/04/11 05:19:14;;;;;;;10.10;6.40;;;11.20;53.60;;;;;;5076751;28;20025;-81
2022/04/11 05:21:40;;;;;;;10.23;6.60;;;11.10;53.60;;;;;;5076164;28;20104;-87
2022/04/11 05:24:06;;;;;;;8.25;6.18;;;10.90;53.70;;;;;;5076738;28;20379;-87
2022/04/11 05:26:31;;;;;;;9.98;6.07;;;10.80;54.40;;;;;;5076630;28;20035;-85
2022/04/11 05:28:57;;;;;;;9.93;6.35;;;10.50;54.40;;;;;;5076112;28;20033;-85
2022/04/11 05:31:23;;;;;;;8.60;6.35;;;10.40;54.90;;;;;;5058025;28;20045;-77
2022/04/11 05:33:48;;;;;;;9.15;5.97;;;10.50;55.10;;;;;;5058045;28;20535;-84
2022/04/11 05:36:14;;;;;;;10.18;6.75;;;10.50;54.20;;;;;;5057612;28;20029;-83
2022/04/11 05:38:40;;;;;;;7.70;5.95;;;10.30;54.90;;;;;;5060646;28;20027;-83
2022/04/11 05:41:06;;;;;;;9.82;6.43;;;10.10;55.30;;;;;;5075672;28;20463;-88
2022/04/11 05:43:31;;;;;;;10.15;6.07;;;10.20;55.40;;;;;;5075452;28;20108;-79
2022/04/11 05:45:59;;;;;;;10.10;6.70;;;10.50;55.00;;;;;;5075702;28;20429;-81
2022/04/11 05:48:25;;;;;;;10.18;6.40;;;10.50;54.50;;;;;;5075214;28;20025;-84
2022/04/11 05:50:50;;;;;;;9.80;6.10;;;10.70;54.80;;;;;;5072985;28;20017;-79
2022/04/11 05:53:17;;;;;;;8.45;5.63;;;11.00;54.70;;;;;;5055738;28;20024;-79
2022/04/11 05:55:43;;;;;;;8.55;5.93;;;10.80;55.00;;;;;;5055787;28;20020;-85
2022/04/11 05:58:09;;;;;;;8.30;5.68;;;11.10;54.10;;;;;;5072927;28;20474;-86
2022/04/11 06:00:34;;;;;;;12.02;6.50;;;11.10;53.50;;;;;;5055455;28;20471;-84
2022/04/11 06:03:00;;;;;;;8.98;6.30;;;11.40;53.40;;;;;;5055603;28;20023;-80
2022/04/11 06:05:26;;;;;;;8.32;5.82;;;11.90;53.10;;;;;;5074234;28;20482;-83
2022/04/11 06:07:51;;;;;;;9.95;6.00;;;11.80;52.70;;;;;;5056803;28;20475;-82
2022/04/11 06:10:17;;;;;;;12.07;6.55;;;11.70;53.20;;;;;;5074577;28;20078;-84
2022/04/11 06:12:43;;;;;;;10.00;6.38;;;11.70;52.30;;;;;;5057000;28;20052;-83
2022/04/11 06:15:11;;;;;;;8.10;5.40;;;11.60;52.80;;;;;;5075160;28;20052;-87
2022/04/11 06:17:37;;;;;;;8.73;5.50;;;11.50;53.50;;;;;;5075582;28;20071;-85
2022/04/11 06:20:03;;;;;;;13.20;6.00;;;11.90;52.70;;;;;;5075002;28;20111;-88
2022/04/11 06:22:29;;;;;;;8.70;5.80;;;12.00;52.40;;;;;;5056952;28;20070;-87
2022/04/11 06:25:01;;;;;;;9.10;5.40;;;12.40;51.90;;;;;;5075286;28;20028;-89
2022/04/11 06:27:28;;;;;;;9.20;5.70;;;12.70;51.50;;;;;;5056854;28;20471;-85
2022/04/11 06:29:56;;;;;;;10.85;6.28;;;12.60;51.00;;;;;;5057065;28;20051;-88
2022/04/11 06:32:29;;;;;;;8.55;5.75;;;12.70;51.60;;;;;;5074800;28;20045;-85
2022/04/11 06:34:55;;;;;;;8.38;5.65;;;12.90;50.90;;;;;;5057299;28;20074;-84
2022/04/11 06:37:26;;;;;;;10.80;6.22;;;13.10;50.40;;;;;;5057010;28;20040;-86
2022/04/11 06:39:53;;;;;;;9.80;5.70;;;12.90;50.70;;;;;;5057391;28;20032;-88
2022/04/11 06:42:19;;;;;;;9.15;5.88;;;13.10;50.90;;;;;;5056925;28;20025;-82
2022/04/11 06:44:45;;;;;;;8.20;5.55;;;13.30;50.10;;;;;;5056974;28;20024;-84
2022/04/11 06:47:11;;;;;;;9.05;6.05;;;13.40;49.60;;;;;;5056598;28;20422;-84
2022/04/11 06:49:37;;;;;;;10.05;6.10;;;13.40;49.90;;;;;;5074677;28;20016;-83
2022/04/11 06:52:05;;;;;;;9.13;5.93;;;13.40;49.90;;;;;;5056889;28;20036;-85
2022/04/11 06:54:33;;;;;;;7.80;5.75;;;13.60;50.50;;;;;;5056277;28;20035;-86
2022/04/11 06:56:59;;;;;;;9.48;5.80;;;14.20;49.20;;;;;;5074081;28;20021;-85
2022/04/11 06:59:25;;;;;;;7.60;5.60;;;14.50;48.60;;;;;;5056671;28;20055;-86
2022/04/11 07:01:54;;;;;;;12.27;5.75;;;14.70;47.20;;;;;;5073817;28;20395;-85
2022/04/11 07:04:21;;;;;;;10.35;6.13;;;15.30;47.20;;;;;;5073837;28;20027;-84
2022/04/11 07:06:47;;;;;;;9.38;5.57;;;15.80;46.60;;;;;;5073967;28;20238;-84
2022/04/11 07:09:13;;;;;;;9.00;5.53;;;16.40;45.50;;;;;;5072947;28;20024;-82
2022/04/11 07:11:39;;;;;;;7.60;5.22;;;17.30;44.30;;;;;;5073464;28;20032;-84
2022/04/11 07:14:06;;;;;;;8.20;5.47;;;18.20;43.30;;;;;;5073282;28;20036;-87
2022/04/11 07:16:32;;;;;;;7.95;5.47;;;19.20;42.30;;;;;;5056106;28;20035;-83
2022/04/11 07:18:58;;;;;;;7.35;5.72;;;19.40;41.40;;;;;;5073816;28;20025;-88
2022/04/11 07:21:23;;;;;;;8.15;5.75;;;19.20;41.60;;;;;;5074017;28;20029;-88
2022/04/11 07:23:49;;;;;;;8.65;5.90;;;19.40;41.70;;;;;;5074002;28;20100;-81
2022/04/11 07:26:15;;;;;;;8.10;5.90;;;19.70;41.70;;;;;;5055697;28;20070;-85
2022/04/11 07:28:40;;;;;;;10.95;5.60;;;20.30;40.50;;;;;;5055900;28;20021;-84
2022/04/11 07:31:06;;;;;;;7.07;5.60;;;20.80;40.00;;;;;;5055648;28;20048;-84
2022/04/11 07:33:32;;;;;;;7.75;5.25;;;21.00;39.90;;;;;;5073414;28;20042;-85
2022/04/11 07:35:58;;;;;;;7.43;5.35;;;20.90;40.00;;;;;;5073488;28;20103;-83
2022/04/11 07:38:23;;;;;;;11.02;5.80;;;20.20;40.50;;;;;;5055839;28;20036;-86
2022/04/11 07:40:50;;;;;;;6.63;4.55;;;20.20;40.50;;;;;;5055809;28;20031;-82
2022/04/11 07:43:23;;;;;;;7.90;5.40;;;20.00;40.40;;;;;;5073029;28;20024;-82
2022/04/11 07:45:49;;;;;;;8.40;5.53;;;20.20;40.80;;;;;;5056176;28;20502;-85
2022/04/11 07:48:15;;;;;;;7.97;5.30;;;20.90;40.60;;;;;;5072836;28;20028;-87
2022/04/11 07:50:41;;;;;;;8.45;5.28;;;21.00;39.80;;;;;;5073235;28;20085;-80
2022/04/11 07:53:06;;;;;;;8.77;5.30;;;20.90;39.40;;;;;;5074246;28;20028;-83
2022/04/11 07:55:33;;;;;;;9.02;5.93;;;21.10;39.80;;;;;;5073183;28;20028;-81
2022/04/11 07:57:59;;;;;;;8.80;5.53;;;20.20;40.10;;;;;;5055324;28;20028;-80
2022/04/11 08:00:25;;;;;;;7.70;5.30;;;19.20;41.00;;;;;;5073133;28;20033;-81
2022/04/11 08:02:52;;;;;;;8.27;5.47;;;18.80;41.80;;;;;;5055430;28;20098;-82
2022/04/11 08:05:21;;;;;;;8.88;5.65;;;18.30;42.20;;;;;;5072875;28;20153;-81
2022/04/11 08:07:48;;;;;;;9.00;5.60;;;18.20;42.40;;;;;;5072744;28;20033;-81
2022/04/11 08:10:15;;;;;;;10.73;5.97;;;18.20;42.20;;;;;;5072930;28;20031;-84
2022/04/11 08:12:49;;;;;;;7.25;5.22;;;18.60;41.70;;;;;;5073054;28;20080;-83
2022/04/11 08:15:14;;;;;;;7.03;5.50;;;19.10;41.80;;;;;;5072950;28;20055;-80
2022/04/11 08:17:40;;;;;;;7.10;5.60;;;20.20;40.70;;;;;;5055150;28;20409;-85
2022/04/11 08:20:06;;;;;;;8.88;5.70;;;20.40;39.90;;;;;;5056814;28;20021;-81
2022/04/11 08:22:32;;;;;;;8.93;6.05;;;20.30;40.50;;;;;;5076907;28;20078;-84
2022/04/11 08:24:57;;;;;;;9.20;6.07;;;20.30;40.30;;;;;;5076780;28;20050;-84
2022/04/11 08:27:23;;;;;;;9.40;5.85;;;19.90;41.20;;;;;;5076799;28;20043;-86
2022/04/11 08:29:49;;;;;;;7.70;5.20;;;20.10;41.00;;;;;;5076712;28;20048;-85
2022/04/11 08:32:14;;;;;;;7.03;5.10;;;20.30;40.10;;;;;;5058723;28;20547;-83
2022/04/11 08:34:40;;;;;;;7.38;5.15;;;19.60;40.50;;;;;;5058563;28;20111;-82
2022/04/11 08:37:06;;;;;;;7.32;5.03;;;19.60;40.30;;;;;;5058679;28;20068;-84
2022/04/11 08:39:31;;;;;;;6.80;5.60;;;20.00;40.40;;;;;;5076912;28;20048;-86
2022/04/11 08:42:01;;;;;;;7.20;5.22;;;20.20;41.50;;;;;;5076564;28;20036;-84
2022/04/11 08:44:28;;;;;;;7.70;5.18;;;20.70;40.00;;;;;;5076216;28;20024;-82
2022/04/11 08:46:58;;;;;;;8.68;5.30;;;21.50;39.70;;;;;;5076463;28;20033;-85
2022/04/11 08:49:24;;;;;;;8.27;4.88;;;22.00;40.00;;;;;;5076105;28;20025;-83
2022/04/11 08:51:50;;;;;;;7.30;4.93;;;22.60;38.70;;;;;;5058537;28;20032;-84
2022/04/11 08:54:16;;;;;;;6.43;4.50;;;21.90;38.30;;;;;;5076364;28;20119;-85
2022/04/11 08:56:41;;;;;;;7.05;5.15;;;22.20;38.10;;;;;;5058752;28;20086;-78
2022/04/11 08:59:07;;;;;;;7.55;5.07;;;22.40;39.20;;;;;;5076094;28;20021;-80
2022/04/11 09:01:34;;;;;;;7.68;4.90;;;22.00;38.60;;;;;;5058409;28;20029;-77
2022/04/11 09:04:00;;;;;;;6.07;4.45;;;22.10;39.00;;;;;;5058546;28;20031;-80
2022/04/11 09:06:30;;;;;;;7.70;4.70;;;22.60;38.80;;;;;;5058170;28;20036;-78
2022/04/11 09:08:56;;;;;;;8.38;4.80;;;22.80;38.10;;;;;;5058094;28;20186;-81
2022/04/11 09:11:38;;;;;;;7.32;4.90;;;23.40;37.40;;;;;;5057845;28;20036;-85
2022/04/11 09:14:06;;;;;;;8.25;5.32;;;24.50;36.90;;;;;;5075859;28;20073;-83
2022/04/11 09:16:51;;;;;;;7.30;4.75;;;24.60;36.80;;;;;;5075927;28;20115;-81
2022/04/11 09:19:21;;;;;;;6.70;4.55;;;24.40;36.20;;;;;;5058007;28;20111;-84
2022/04/11 09:21:47;;;;;;;5.20;3.90;;;24.80;36.80;;;;;;5058111;28;20020;-84
2022/04/11 09:24:16;;;;;;;6.43;4.18;;;24.90;36.10;;;;;;5075531;28;20413;-85
2022/04/11 09:26:42;;;;;;;5.60;3.85;;;24.90;35.00;;;;;;5057516;28;20055;-81
2022/04/11 09:29:08;;;;;;;5.78;3.65;;;25.40;35.20;;;;;;5057957;28;20024;-84
2022/04/11 09:31:34;;;;;;;5.18;3.63;;;25.50;34.90;;;;;;5056417;28;20490;-83
2022/04/11 09:34:21;;;;;;;6.05;3.45;;;24.90;35.30;;;;;;5057320;28;20021;-84
2022/04/11 09:36:59;;;;;;;5.40;3.70;;;25.40;35.30;;;;;;5075457;28;20368;-85
2022/04/11 09:39:25;;;;;;;8.00;3.50;;;25.30;35.00;;;;;;5058245;28;20486;-86
2022/04/11 09:41:52;;;;;;;5.75;3.55;;;26.30;35.20;;;;;;5057433;28;20394;-83
2022/04/11 09:44:31;;;;;;;5.07;3.38;;;26.80;35.10;;;;;;5057601;28;20035;-89
2022/04/11 09:47:05;;;;;;;6.85;3.78;;;26.70;33.90;;;;;;5057709;28;20391;-85
2022/04/11 09:49:32;;;;;;;6.90;3.67;;;26.90;33.90;;;;;;5057764;28;20024;-84
2022/04/11 09:52:07;;;;;;;6.35;3.70;;;27.70;33.50;;;;;;5075468;28;20438;-84
2022/04/11 09:54:54;;;;;;;4.80;3.60;;;27.50;33.50;;;;;;5075450;28;20479;-84
2022/04/11 09:57:22;;;;;;;6.10;3.80;;;26.60;32.80;;;;;;5074306;28;20406;-81
2022/04/11 09:59:50;;;;;;;6.97;3.70;;;26.60;34.00;;;;;;5075420;28;20467;-81
2022/04/11 10:02:17;;;;;;;7.10;3.35;;;27.10;33.80;;;;;;5057075;28;20105;-80
2022/04/11 10:04:46;;;;;;;5.00;3.00;;;27.00;33.20;;;;;;5074983;28;20028;-82
2022/04/11 10:07:12;;;;;;;4.93;3.35;;;27.50;33.20;;;;;;5075135;28;20032;-80
2022/04/11 10:09:41;;;;;;;4.13;3.13;;;26.90;33.90;;;;;;5074794;28;20372;-87
2022/04/11 10:12:09;;;;;;;5.17;3.47;;;26.50;35.00;;;;;;5057224;28;20402;-86
2022/04/11 10:14:35;;;;;;;4.70;3.30;;;25.90;33.20;;;;;;5074641;28;20067;-89
2022/04/11 10:17:02;;;;;;;5.35;3.38;;;24.40;34.80;;;;;;5074466;28;20039;-83
2022/04/11 10:19:38;;;;;;;5.57;3.10;;;23.00;33.90;;;;;;5074817;28;20055;-79
2022/04/11 10:22:05;;;;;;;5.25;3.33;;;22.10;36.10;;;;;;5056610;28;20555;-83
2022/04/11 10:24:44;;;;;;;4.60;2.92;;;20.10;36.90;;;;;;5056199;28;20029;-86
2022/04/11 10:27:22;;;;;;;4.45;2.90;;;20.50;36.50;;;;;;5074082;28;20024;-80
2022/04/11 10:29:50;;;;;;;4.50;3.20;;;22.40;36.00;;;;;;5056370;28;20463;-82
2022/04/11 10:32:21;;;;;;;5.50;3.10;;;24.10;34.60;;;;;;5073905;28;20052;-81
2022/04/11 10:35:04;;;;;;;4.90;3.00;;;24.70;34.00;;;;;;5056524;28;20467;-82
2022/04/11 10:37:39;;;;;;;6.05;3.03;;;24.80;33.70;;;;;;5056989;28;20029;-81
2022/04/11 10:40:17;;;;;;;5.18;3.40;;;22.00;34.70;;;;;;5056600;28;20028;-86
2022/04/11 10:43:05;;;;;;;4.63;2.72;;;19.70;36.40;;;;;;5074541;28;20031;-88
2022/04/11 10:45:34;;;;;;;4.22;2.50;;;20.70;36.40;;;;;;5056303;28;20504;-83
2022/04/11 10:48:01;;;;;;;4.30;2.70;;;23.10;35.00;;;;;;5074394;28;20050;-85
2022/04/11 10:50:38;;;;;;;4.20;2.92;;;24.90;33.50;;;;;;5056360;28;20028;-85
2022/04/11 10:53:15;;;;;;;3.85;2.65;;;25.70;33.50;;;;;;5056286;28;20081;-83
2022/04/11 10:56:08;;;;;;;5.63;3.17;;;26.70;33.30;;;;;;5056228;28;20490;-86
2022/04/11 10:58:50;;;;;;;5.60;3.85;;;26.60;33.20;;;;;;5055842;28;20108;-84
2022/04/11 11:01:44;;;;;;;6.07;3.20;;;23.80;33.80;;;;;;5073711;28;20082;-82
2022/04/11 11:04:17;;;;;;;5.18;2.58;;;21.60;34.50;;;;;;5056455;28;20020;-83
2022/04/11 11:06:43;;;;;;;4.95;2.67;;;19.80;36.50;;;;;;5073647;28;20037;-80
2022/04/11 11:09:19;;;;;;;4.63;2.50;;;19.10;36.70;;;;;;5073914;28;20027;-85
2022/04/11 11:11:47;;;;;;;4.75;2.80;;;18.70;39.70;;;;;;5073773;28;20119;-84
2022/04/11 11:14:42;;;;;;;4.88;3.00;;;18.80;40.50;;;;;;5073689;28;20052;-81
2022/04/11 11:17:10;;;;;;;4.50;3.00;;;19.00;38.00;;;;;;5047214;28;20498;-82
2022/04/11 11:20:08;;;;;;;4.43;2.97;;;19.00;39.40;;;;;;5055768;28;20024;-80
2022/04/11 11:23:13;;;;;;;4.80;2.92;;;18.90;37.60;;;;;;5036325;28;20029;-83
2022/04/11 11:25:39;;;;;;;6.95;3.67;;;18.40;36.90;;;;;;5055140;28;20043;-82
2022/04/11 11:28:05;;;;;;;4.68;3.67;;;17.30;39.90;;;;;;5055062;28;20025;-85
2022/04/11 11:30:32;;;;;;;5.68;3.55;;;16.90;41.00;;;;;;5055244;28;20051;-81
2022/04/11 11:33:00;;;;;;;5.13;3.40;;;17.60;42.40;;;;;;5055510;28;20028;-86
2022/04/11 11:35:27;;;;;;;5.20;2.88;;;17.70;40.30;;;;;;5073493;28;20568;-86
2022/04/11 11:38:02;;;;;;;3.88;2.50;;;18.30;39.00;;;;;;5073111;28;20035;-82
2022/04/11 11:40:29;;;;;;;6.38;3.03;;;18.30;37.60;;;;;;5072926;28;20034;-79
2022/04/11 11:42:56;;;;;;;5.18;2.60;;;18.40;39.70;;;;;;5055230;28;20036;-85
2022/04/11 11:45:29;;;;;;;4.22;2.60;;;18.20;38.60;;;;;;5055399;28;20115;-82
2022/04/11 11:47:55;;;;;;;4.72;2.97;;;18.30;37.60;;;;;;5055094;28;20052;-84
2022/04/11 11:50:20;;;;;;;5.10;3.10;;;18.10;39.70;;;;;;5073242;28;20123;-81
2022/04/11 11:52:57;;;;;;;6.22;3.20;;;17.40;39.00;;;;;;5072611;28;20032;-82
2022/04/11 11:55:23;;;;;;;5.40;3.17;;;17.20;40.00;;;;;;5072392;28;20028;-81
2022/04/11 11:58:05;;;;;;;5.70;2.88;;;17.40;39.40;;;;;;5054844;28;20070;-85
2022/04/11 12:00:34;;;;;;;4.95;2.50;;;17.20;39.50;;;;;;5073316;28;20035;-82
2022/04/11 12:05:44;;;;;;;5.68;3.70;;;16.80;39.50;;;;;;5073722;28;20106;-83
2022/04/11 12:08:14;;;;;;;6.63;4.03;;;17.60;41.00;;;;;;5055113;28;20036;-83
2022/04/11 12:10:45;;;;;;;4.30;2.97;;;17.70;38.40;;;;;;5073197;28;20051;-82
2022/04/11 12:13:19;;;;;;;4.70;2.80;;;18.70;39.20;;;;;;5055264;28;20064;-85
2022/04/11 12:15:45;;;;;;;4.97;2.72;;;19.30;37.80;;;;;;5072994;28;20016;-81
2022/04/11 12:18:12;;;;;;;6.93;3.80;;;18.70;37.00;;;;;;5072190;28;20425;-81
2022/04/11 12:20:38;;;;;;;5.00;2.33;;;18.50;37.30;;;;;;5055254;28;20566;-82
2022/04/11 12:23:11;;;;;;;5.10;3.20;;;18.30;37.20;;;;;;5054692;28;20021;-86
2022/04/11 12:26:03;;;;;;;5.78;2.38;;;18.10;38.20;;;;;;5055353;28;20105;-85
2022/04/11 12:28:34;;;;;;;4.03;2.50;;;17.40;38.00;;;;;;5050374;28;20113;-80
2022/04/11 12:31:03;;;;;;;5.00;2.83;;;17.70;38.20;;;;;;5054884;28;20086;-82
2022/04/11 12:33:36;;;;;;;4.25;2.85;;;18.00;37.50;;;;;;5055368;28;20348;-82
2022/04/11 12:36:07;;;;;;;6.05;2.67;;;18.10;37.50;;;;;;5054794;28;20028;-84
2022/04/11 12:38:44;;;;;;;4.93;2.97;;;18.80;38.50;;;;;;5055103;28;20045;-81
2022/04/11 12:41:33;;;;;;;4.03;2.33;;;19.30;38.10;;;;;;5054758;28;20121;-82
2022/04/11 12:43:59;;;;;;;3.55;2.20;;;19.10;36.70;;;;;;5055145;28;20021;-84
2022/04/11 12:46:25;;;;;;;4.38;2.22;;;18.50;36.00;;;;;;5054862;28;20028;-80
2022/04/11 12:48:56;;;;;;;4.10;2.35;;;18.00;37.10;;;;;;5072661;28;20071;-84
2022/04/11 12:51:21;;;;;;;;;;;18.40;36.90;;;;;;5054750;28;20035;-86
2022/04/11 12:53:48;;;;;;;5.72;3.85;;;18.40;37.10;;;;;;5054472;28;19904;-81